createdAt,value
2019-03-03T00:01:08.007Z,9.83
2019-03-03T00:03:37.396Z,11.20
2019-03-03T00:06:06.778Z,9.97
2019-03-03T00:08:36.233Z,10.47
2019-03-03T00:11:05.595Z,9.97
2019-03-03T00:13:35.125Z,11.23
2019-03-03T00:16:04.586Z,10.93
2019-03-03T00:18:33.962Z,11.33
2019-03-03T00:21:03.526Z,9.80
2019-03-03T00:23:32.902Z,10.20
2019-03-03T00:26:02.284Z,13.10
2019-03-03T00:28:31.595Z,12.67
2019-03-03T00:31:00.981Z,11.10
2019-03-03T00:33:30.349Z,10.33
2019-03-03T00:35:59.726Z,9.87
2019-03-03T00:38:30.755Z,12.77
2019-03-03T00:41:04.522Z,11.87
2019-03-03T00:43:35.550Z,10.57
2019-03-03T00:46:23.047Z,11.00
2019-03-03T00:49:03.193Z,8.90
2019-03-03T00:51:52.407Z,8.97
2019-03-03T00:54:26.092Z,10.50
2019-03-03T00:57:06.170Z,9.53
2019-03-03T00:59:37.173Z,11.80
2019-03-03T01:02:08.278Z,10.97
2019-03-03T01:04:45.361Z,12.27
2019-03-03T01:07:16.856Z,12.00
2019-03-03T01:09:50.821Z,13.27
2019-03-03T01:12:27.866Z,10.70
2019-03-03T01:15:01.870Z,8.50
2019-03-03T01:17:38.901Z,11.33
2019-03-03T01:20:11.644Z,12.80
2019-03-03T01:22:43.002Z,14.73
2019-03-03T01:25:12.472Z,9.77
2019-03-03T01:27:41.862Z,10.73
2019-03-03T01:30:13.084Z,11.37
2019-03-03T01:32:42.466Z,15.00
2019-03-03T01:35:11.913Z,12.63
2019-03-03T01:37:41.378Z,12.20
2019-03-03T01:40:11.803Z,13.50
2019-03-03T01:42:41.226Z,12.97
2019-03-03T01:45:13.169Z,12.03
2019-03-03T01:47:43.053Z,13.27
2019-03-03T01:50:13.476Z,12.10
2019-03-03T01:52:42.853Z,13.03
2019-03-03T01:55:13.078Z,12.57
2019-03-03T01:57:42.463Z,13.83
2019-03-03T02:00:24.041Z,8.80
2019-03-03T02:02:56.852Z,14.23
2019-03-03T02:05:26.421Z,10.07
2019-03-03T02:07:56.050Z,10.47
2019-03-03T02:10:25.500Z,12.63
2019-03-03T02:12:54.983Z,15.23
2019-03-03T02:15:24.662Z,11.77
2019-03-03T02:17:54.620Z,15.63
2019-03-03T02:20:25.739Z,15.23
2019-03-03T02:22:55.144Z,15.87
2019-03-03T02:25:24.545Z,16.77
2019-03-03T02:27:55.225Z,16.03
2019-03-03T02:30:24.664Z,14.23
2019-03-03T02:32:54.074Z,15.13
2019-03-03T02:35:23.507Z,15.73
2019-03-03T02:37:52.887Z,12.97
2019-03-03T02:40:22.343Z,11.60
2019-03-03T02:42:51.805Z,12.37
2019-03-03T02:45:21.383Z,11.93
2019-03-03T02:47:50.675Z,14.63
2019-03-03T02:50:20.823Z,13.77
2019-03-03T02:52:50.190Z,11.07
2019-03-03T02:55:19.606Z,14.43
2019-03-03T02:57:48.972Z,16.53
2019-03-03T03:00:20.486Z,12.77
2019-03-03T03:02:51.389Z,10.77
2019-03-03T03:05:33.098Z,13.17
2019-03-03T03:08:08.663Z,10.67
2019-03-03T03:10:52.037Z,13.43
2019-03-03T03:13:41.058Z,13.13
2019-03-03T03:16:15.079Z,10.87
2019-03-03T03:19:04.541Z,13.20
2019-03-03T03:21:38.328Z,13.07
2019-03-03T03:24:21.660Z,15.00
2019-03-03T03:26:52.764Z,11.97
2019-03-03T03:29:26.545Z,12.97
2019-03-03T03:32:00.374Z,12.70
2019-03-03T03:34:37.587Z,13.10
2019-03-03T03:37:11.431Z,12.33
2019-03-03T03:39:43.974Z,12.97
2019-03-03T03:42:20.833Z,16.03
2019-03-03T03:44:51.916Z,15.47
2019-03-03T03:47:28.739Z,12.00
2019-03-03T03:50:02.649Z,12.93
2019-03-03T03:52:42.888Z,10.37
2019-03-03T03:55:23.434Z,11.13
2019-03-03T03:58:00.771Z,10.93
2019-03-03T04:00:37.756Z,13.67
2019-03-03T04:03:08.945Z,13.63
2019-03-03T04:05:39.990Z,10.53
2019-03-03T04:08:12.190Z,9.37
2019-03-03T04:10:52.145Z,11.97
2019-03-03T04:13:25.868Z,13.27
2019-03-03T04:15:59.626Z,14.90
2019-03-03T04:18:39.363Z,13.53
2019-03-03T04:21:28.618Z,14.83
2019-03-03T04:24:08.238Z,11.70
2019-03-03T04:26:55.482Z,11.00
2019-03-03T04:29:41.303Z,14.20
2019-03-03T04:32:21.386Z,13.43
2019-03-03T04:35:00.995Z,14.47
2019-03-03T04:37:38.064Z,12.73
2019-03-03T04:40:25.935Z,14.40
2019-03-03T04:42:59.894Z,13.33
2019-03-03T04:45:46.139Z,12.37
2019-03-03T04:48:17.155Z,15.57
2019-03-03T04:50:51.135Z,14.60
2019-03-03T04:53:31.155Z,15.37
2019-03-03T04:56:11.323Z,13.10
2019-03-03T04:58:51.429Z,10.47
2019-03-03T05:01:34.412Z,10.43
2019-03-03T05:04:14.564Z,9.37
2019-03-03T05:06:54.577Z,11.30
2019-03-03T05:09:41.765Z,10.10
2019-03-03T05:12:17.201Z,11.07
2019-03-03T05:14:46.568Z,12.27
2019-03-03T05:17:29.526Z,13.53
2019-03-03T05:20:00.572Z,11.77
2019-03-03T05:22:30.030Z,10.87
2019-03-03T05:24:59.445Z,14.80
2019-03-03T05:27:28.831Z,13.30
2019-03-03T05:29:58.288Z,11.67
2019-03-03T05:32:27.756Z,10.87
2019-03-03T05:34:57.224Z,8.37
2019-03-03T05:37:26.592Z,10.23
2019-03-03T05:39:55.960Z,12.77
2019-03-03T05:42:25.357Z,12.50
2019-03-03T05:44:54.780Z,10.67
2019-03-03T05:47:24.149Z,12.47
2019-03-03T05:49:53.619Z,12.73
2019-03-03T05:52:23.006Z,15.30
2019-03-03T05:54:52.416Z,10.17
2019-03-03T05:57:21.793Z,13.93
2019-03-03T05:59:51.276Z,14.30
2019-03-03T06:02:20.567Z,14.60
2019-03-03T06:04:49.969Z,14.33
2019-03-03T06:07:19.365Z,20.93
2019-03-03T06:09:49.903Z,13.03
2019-03-03T06:12:19.317Z,13.67
2019-03-03T06:14:48.701Z,19.77
2019-03-03T06:17:18.123Z,16.40
2019-03-03T06:19:47.505Z,19.47
2019-03-03T06:22:16.965Z,14.77
2019-03-03T06:24:46.384Z,18.30
2019-03-03T06:27:15.797Z,18.40
2019-03-03T06:29:45.202Z,19.87
2019-03-03T06:32:15.079Z,14.67
2019-03-03T06:34:44.467Z,15.27
2019-03-03T06:37:13.853Z,15.67
2019-03-03T06:39:43.318Z,15.17
2019-03-03T06:42:12.682Z,14.37
2019-03-03T06:44:42.080Z,18.00
2019-03-03T06:47:11.579Z,17.87
2019-03-03T06:49:41.147Z,18.43
2019-03-03T06:52:10.594Z,17.80
2019-03-03T06:54:40.063Z,16.47
2019-03-03T06:57:09.963Z,14.17
2019-03-03T06:59:39.360Z,13.33
2019-03-03T07:02:08.726Z,20.27
2019-03-03T07:04:38.211Z,16.27
2019-03-03T07:07:07.666Z,17.63
2019-03-03T07:09:37.375Z,21.30
2019-03-03T07:12:06.866Z,18.70
2019-03-03T07:14:36.395Z,18.70
2019-03-03T07:17:05.869Z,21.53
2019-03-03T07:19:35.266Z,21.80
2019-03-03T07:22:06.091Z,19.63
2019-03-03T07:24:35.698Z,17.83
2019-03-03T07:27:05.182Z,17.20
2019-03-03T07:29:34.569Z,19.57
2019-03-03T07:32:03.946Z,17.13
2019-03-03T07:34:33.334Z,16.53
2019-03-03T07:37:02.704Z,15.87
2019-03-03T07:39:32.096Z,16.97
2019-03-03T07:44:43.770Z,16.80
2019-03-03T07:47:13.176Z,16.20
2019-03-03T07:49:42.619Z,17.80
2019-03-03T07:52:12.015Z,16.57
2019-03-03T07:54:41.399Z,14.27
2019-03-03T07:57:10.808Z,13.83
2019-03-03T07:59:40.211Z,14.50
2019-03-03T08:02:10.410Z,13.37
2019-03-03T08:04:41.459Z,13.53
2019-03-03T08:07:10.832Z,14.97
2019-03-03T08:09:40.329Z,13.60
2019-03-03T08:12:09.700Z,16.10
2019-03-03T08:14:39.077Z,13.70
2019-03-03T08:17:08.394Z,13.33
2019-03-03T08:19:37.781Z,16.10
2019-03-03T08:22:07.182Z,12.97
2019-03-03T08:24:36.552Z,16.27
2019-03-03T08:27:05.924Z,16.20
2019-03-03T08:29:35.257Z,15.57
2019-03-03T08:32:04.718Z,14.07
2019-03-03T08:34:34.138Z,16.00
2019-03-03T08:37:03.578Z,16.17
2019-03-03T08:39:35.066Z,18.77
2019-03-03T08:42:06.174Z,15.90
2019-03-03T08:44:37.138Z,12.57
2019-03-03T08:47:08.237Z,17.90
2019-03-03T08:49:45.035Z,18.57
2019-03-03T08:52:16.041Z,14.73
2019-03-03T08:54:47.728Z,15.17
2019-03-03T08:57:18.755Z,14.80
2019-03-03T08:59:49.809Z,12.87
2019-03-03T09:02:23.626Z,16.23
2019-03-03T09:04:57.042Z,17.03
2019-03-03T09:07:44.864Z,16.10
2019-03-03T09:10:25.072Z,13.03
2019-03-03T09:12:48.638Z,18.50
2019-03-03T09:15:35.851Z,16.33
2019-03-03T09:18:12.923Z,18.40
2019-03-03T09:21:00.071Z,19.47
2019-03-03T09:23:31.162Z,13.40
2019-03-03T09:26:10.836Z,16.30
2019-03-03T09:28:42.023Z,19.27
2019-03-03T09:31:13.127Z,17.53
2019-03-03T09:33:44.609Z,13.83
2019-03-03T09:36:18.536Z,13.13
2019-03-03T09:38:49.550Z,15.33
2019-03-03T09:41:39.060Z,17.97
2019-03-03T09:44:26.489Z,13.37
2019-03-03T09:47:06.887Z,15.27
2019-03-03T09:49:56.051Z,13.77
2019-03-03T09:52:27.121Z,12.23
2019-03-03T09:55:10.052Z,17.17
2019-03-03T09:57:47.326Z,18.17
2019-03-03T10:00:18.414Z,17.57
2019-03-03T10:02:52.365Z,12.93
2019-03-03T10:05:26.385Z,16.90
2019-03-03T10:08:03.518Z,12.27
2019-03-03T10:10:34.517Z,12.40
2019-03-03T10:13:11.524Z,19.53
2019-03-03T10:15:42.675Z,21.97
2019-03-03T10:18:28.854Z,12.87
2019-03-03T10:21:03.249Z,13.60
2019-03-03T10:23:37.193Z,17.10
2019-03-03T10:26:14.384Z,42.27
2019-03-03T10:28:45.617Z,17.13
2019-03-03T10:31:32.862Z,15.67
2019-03-03T10:34:03.964Z,15.57
2019-03-03T10:36:35.002Z,16.40
2019-03-03T10:39:26.176Z,13.80
2019-03-03T10:42:13.557Z,23.97
2019-03-03T10:44:44.586Z,13.83
2019-03-03T10:47:32.010Z,20.13
2019-03-03T10:50:15.042Z,13.77
2019-03-03T10:53:04.059Z,12.40
2019-03-03T10:55:35.101Z,14.47
2019-03-03T10:58:06.258Z,12.77
2019-03-03T11:00:43.049Z,16.17
2019-03-03T11:03:19.798Z,18.63
2019-03-03T11:05:53.635Z,19.13
2019-03-03T11:08:36.942Z,15.87
2019-03-03T11:11:14.289Z,16.77
2019-03-03T11:13:52.821Z,13.57
2019-03-03T11:16:24.038Z,13.83
2019-03-03T11:18:57.504Z,13.03
2019-03-03T11:21:45.151Z,14.37
2019-03-03T11:24:19.108Z,16.97
2019-03-03T11:26:50.235Z,12.00
2019-03-03T11:29:23.873Z,12.03
2019-03-03T11:32:03.997Z,15.40
2019-03-03T11:34:51.483Z,13.13
2019-03-03T11:37:28.395Z,13.27
2019-03-03T11:40:15.772Z,12.07
2019-03-03T11:42:46.833Z,17.63
2019-03-03T11:45:36.001Z,13.87
2019-03-03T11:48:13.120Z,13.03
2019-03-03T11:50:46.980Z,12.87
2019-03-03T11:53:23.657Z,12.30
2019-03-03T11:56:00.616Z,13.10
2019-03-03T11:58:34.777Z,12.17
2019-03-03T12:01:09.636Z,18.57
2019-03-03T12:03:40.674Z,13.27
2019-03-03T12:06:14.771Z,13.07
2019-03-03T12:09:02.314Z,19.67
2019-03-03T12:11:36.417Z,11.10
2019-03-03T12:14:14.231Z,10.23
2019-03-03T12:16:48.149Z,21.50
2019-03-03T12:19:21.615Z,9.00
2019-03-03T12:21:53.437Z,8.70
2019-03-03T12:24:24.507Z,8.43
2019-03-03T12:27:04.479Z,10.03
2019-03-03T12:29:37.975Z,15.87
2019-03-03T12:32:12.554Z,10.53
2019-03-03T12:34:59.956Z,9.53
2019-03-03T12:37:39.966Z,6.47
2019-03-03T12:40:29.208Z,12.47
2019-03-03T12:43:06.128Z,9.83
2019-03-03T12:45:43.391Z,9.33
2019-03-03T12:48:32.949Z,7.60
2019-03-03T12:51:06.701Z,11.10
2019-03-03T12:53:52.887Z,8.00
2019-03-03T12:56:26.746Z,9.20
2019-03-03T12:59:10.163Z,10.70
2019-03-03T13:01:47.368Z,7.47
2019-03-03T13:04:36.506Z,8.13
2019-03-03T13:07:16.498Z,10.83
2019-03-03T13:09:58.400Z,12.23
2019-03-03T13:12:29.464Z,10.53
2019-03-03T13:15:03.403Z,10.77
2019-03-03T13:17:37.041Z,10.70
2019-03-03T13:20:24.901Z,10.43
2019-03-03T13:22:55.986Z,14.77
2019-03-03T13:25:29.419Z,9.90
2019-03-03T13:28:06.512Z,8.53
2019-03-03T13:30:46.592Z,10.07
2019-03-03T13:33:29.807Z,11.30
2019-03-03T13:36:00.832Z,7.17
2019-03-03T13:38:37.564Z,11.97
2019-03-03T13:41:11.685Z,10.87
2019-03-03T13:43:41.161Z,8.73
2019-03-03T13:46:10.787Z,8.93
2019-03-03T13:48:40.251Z,9.43
2019-03-03T13:51:09.751Z,10.10
2019-03-03T13:53:39.130Z,15.73
2019-03-03T13:56:08.540Z,10.97
2019-03-03T13:58:37.986Z,7.17
2019-03-03T14:01:07.477Z,11.27
2019-03-03T14:03:36.976Z,6.60
2019-03-03T14:06:06.504Z,8.77
2019-03-03T14:08:35.886Z,10.83
2019-03-03T14:11:05.220Z,7.13
2019-03-03T14:13:34.610Z,7.23
2019-03-03T14:16:04.124Z,8.63
2019-03-03T14:18:33.572Z,5.37
2019-03-03T14:21:03.113Z,5.17
2019-03-03T14:23:32.486Z,6.60
2019-03-03T14:26:01.883Z,5.27
2019-03-03T14:28:31.323Z,7.23
2019-03-03T14:31:00.687Z,9.70
2019-03-03T14:33:30.180Z,5.47
2019-03-03T14:35:59.561Z,6.90
2019-03-03T14:38:28.944Z,7.43
2019-03-03T14:40:58.324Z,5.77
2019-03-03T14:43:27.716Z,8.60
2019-03-03T14:45:58.138Z,7.10
2019-03-03T14:48:27.705Z,6.13
2019-03-03T14:50:57.316Z,7.17
2019-03-03T14:53:26.689Z,7.33
2019-03-03T14:55:56.096Z,8.50
2019-03-03T14:58:25.483Z,9.33
2019-03-03T15:00:55.000Z,5.60
2019-03-03T15:03:24.404Z,9.33
2019-03-03T15:05:53.784Z,8.00
2019-03-03T15:08:23.173Z,10.40
2019-03-03T15:10:52.713Z,8.17
2019-03-03T15:13:22.082Z,8.33
2019-03-03T15:15:51.615Z,7.27
2019-03-03T15:18:20.990Z,10.57
2019-03-03T15:20:50.537Z,8.20
2019-03-03T15:23:19.859Z,11.50
2019-03-03T15:25:49.241Z,10.33
2019-03-03T15:28:18.638Z,10.77
2019-03-03T15:30:48.089Z,10.07
2019-03-03T15:33:17.586Z,9.53
2019-03-03T15:35:47.059Z,10.87
2019-03-03T15:38:16.598Z,10.33
2019-03-03T15:40:46.025Z,7.30
2019-03-03T15:43:15.389Z,11.10
2019-03-03T15:45:45.065Z,9.93
2019-03-03T15:48:14.523Z,10.40
2019-03-03T15:50:43.964Z,12.13
2019-03-03T15:53:13.303Z,12.20
2019-03-03T15:55:42.703Z,9.83
2019-03-03T15:58:12.140Z,9.20
2019-03-03T16:00:42.469Z,10.37
2019-03-03T16:03:11.925Z,7.60
2019-03-03T16:05:41.510Z,7.60
2019-03-03T16:08:10.965Z,9.87
2019-03-03T16:10:41.905Z,8.93
2019-03-03T16:13:11.374Z,8.40
2019-03-03T16:15:40.998Z,8.60
2019-03-03T16:18:10.491Z,9.00
2019-03-03T16:20:39.877Z,8.23
2019-03-03T16:23:09.272Z,11.33
2019-03-03T16:25:38.733Z,6.13
2019-03-03T16:28:08.110Z,7.13
2019-03-03T16:30:37.492Z,9.43
2019-03-03T16:33:06.927Z,7.07
2019-03-03T16:35:36.376Z,7.63
2019-03-03T16:38:05.789Z,10.53
2019-03-03T16:40:39.654Z,7.77
2019-03-03T16:43:06.250Z,9.10
2019-03-03T16:45:36.218Z,7.53
2019-03-03T16:48:05.692Z,9.80
2019-03-03T16:50:35.090Z,9.60
2019-03-03T16:53:04.871Z,8.37
2019-03-03T16:55:34.395Z,8.33
2019-03-03T16:58:03.789Z,8.43
2019-03-03T17:00:33.281Z,10.83
2019-03-03T17:03:02.766Z,15.27
2019-03-03T17:05:32.081Z,14.60
2019-03-03T17:08:01.532Z,12.93
2019-03-03T17:10:30.991Z,9.40
2019-03-03T17:13:00.369Z,10.23
2019-03-03T17:15:30.349Z,11.10
2019-03-03T17:17:59.748Z,9.03
2019-03-03T17:20:29.228Z,11.03
2019-03-03T17:22:58.637Z,9.63
2019-03-03T17:25:29.841Z,12.83
2019-03-03T17:27:59.330Z,13.80
2019-03-03T17:30:28.945Z,12.33
2019-03-03T17:32:58.310Z,9.83
2019-03-03T17:35:27.967Z,8.57
2019-03-03T17:37:57.364Z,9.70
2019-03-03T17:40:27.717Z,9.27
2019-03-03T17:42:57.247Z,12.13
2019-03-03T17:45:26.767Z,9.40
2019-03-03T17:47:56.121Z,11.40
2019-03-03T17:50:27.208Z,14.27
2019-03-03T17:52:56.946Z,11.63
2019-03-03T17:55:26.683Z,9.20
2019-03-03T17:57:57.288Z,16.37
2019-03-03T18:00:29.272Z,10.50
2019-03-03T18:02:58.665Z,13.87
2019-03-03T18:05:28.101Z,14.23
2019-03-03T18:07:57.617Z,9.73
2019-03-03T18:10:27.369Z,15.87
2019-03-03T18:12:56.829Z,17.47
2019-03-03T18:15:26.320Z,23.27
2019-03-03T18:17:55.750Z,17.27
2019-03-03T18:20:25.146Z,19.40
2019-03-03T18:22:54.621Z,8.43
2019-03-03T18:25:23.985Z,8.93
2019-03-03T18:27:53.371Z,12.00
2019-03-03T18:30:27.217Z,10.93
2019-03-03T18:32:56.765Z,11.30
2019-03-03T18:35:26.210Z,9.20
2019-03-03T18:37:55.667Z,9.63
2019-03-03T18:40:26.197Z,8.83
2019-03-03T18:42:55.580Z,9.03
2019-03-03T18:45:25.019Z,9.43
2019-03-03T18:47:54.424Z,9.43
2019-03-03T18:50:29.362Z,8.63
2019-03-03T18:53:00.021Z,13.40
2019-03-03T18:55:29.874Z,12.93
2019-03-03T18:57:59.348Z,10.13
2019-03-03T19:00:30.349Z,7.53
2019-03-03T19:02:59.989Z,10.37
2019-03-03T19:05:29.340Z,10.40
2019-03-03T19:07:58.797Z,7.23
2019-03-03T19:10:33.582Z,13.43
2019-03-03T19:13:02.969Z,6.27
2019-03-03T19:15:33.381Z,10.17
2019-03-03T19:18:03.142Z,10.37
2019-03-03T19:20:32.542Z,10.47
2019-03-03T19:23:01.975Z,8.43
2019-03-03T19:25:31.266Z,9.77
2019-03-03T19:28:00.613Z,9.30
2019-03-03T19:30:30.490Z,8.77
2019-03-03T19:33:06.428Z,10.47
2019-03-03T19:35:35.867Z,9.63
2019-03-03T19:38:06.972Z,9.60
2019-03-03T19:40:36.481Z,9.70
2019-03-03T19:43:05.878Z,9.47
2019-03-03T19:45:44.051Z,7.43
2019-03-03T19:48:13.596Z,10.83
2019-03-03T19:50:43.352Z,9.40
2019-03-03T19:53:12.908Z,9.13
2019-03-03T19:55:42.494Z,8.10
2019-03-03T19:58:11.953Z,10.97
2019-03-03T20:00:42.781Z,9.87
2019-03-03T20:03:12.202Z,9.83
2019-03-03T20:05:41.594Z,9.33
2019-03-03T20:08:13.012Z,10.00
2019-03-03T20:10:42.560Z,8.20
2019-03-03T20:13:12.004Z,9.57
2019-03-03T20:15:41.432Z,9.30
2019-03-03T20:18:11.063Z,7.80
2019-03-03T20:20:40.545Z,10.13
2019-03-03T20:23:11.625Z,11.03
2019-03-03T20:25:41.332Z,8.97
2019-03-03T20:28:10.718Z,8.63
2019-03-03T20:30:40.493Z,8.63
2019-03-03T20:33:09.908Z,8.30
2019-03-03T20:35:39.287Z,9.77
2019-03-03T20:38:08.748Z,9.63
2019-03-03T20:40:39.157Z,10.03
2019-03-03T20:43:08.862Z,10.63
2019-03-03T20:45:38.320Z,8.47
2019-03-03T20:48:07.808Z,9.87
2019-03-03T20:50:38.015Z,8.00
2019-03-03T20:53:07.494Z,7.57
2019-03-03T20:55:36.877Z,8.77
2019-03-03T20:58:06.371Z,10.20
2019-03-03T21:00:35.810Z,7.70
2019-03-03T21:03:05.263Z,8.20
2019-03-03T21:05:34.651Z,11.90
2019-03-03T21:08:04.060Z,10.70
2019-03-03T21:10:34.790Z,13.17
2019-03-03T21:13:04.266Z,11.20
2019-03-03T21:15:33.670Z,8.93
2019-03-03T21:18:03.051Z,10.23
2019-03-03T21:20:32.505Z,9.17
2019-03-03T21:23:02.257Z,8.93
2019-03-03T21:25:31.656Z,9.90
2019-03-03T21:28:01.082Z,8.80
2019-03-03T21:30:30.532Z,11.73
2019-03-03T21:33:00.039Z,12.53
2019-03-03T21:35:29.473Z,9.60
2019-03-03T21:37:59.239Z,10.07
2019-03-03T21:40:28.939Z,10.23
2019-03-03T21:42:58.316Z,9.67
2019-03-03T21:45:31.897Z,11.40
2019-03-03T21:48:01.279Z,11.27
2019-03-03T21:50:31.514Z,12.77
2019-03-03T21:53:00.893Z,12.37
2019-03-03T21:55:30.264Z,13.33
2019-03-03T21:57:59.673Z,10.50
2019-03-03T22:00:36.973Z,13.80
2019-03-03T22:03:07.522Z,14.67
2019-03-03T22:05:36.931Z,13.60
2019-03-03T22:08:06.339Z,14.37
2019-03-03T22:10:35.774Z,10.40
2019-03-03T22:13:10.668Z,8.53
2019-03-03T22:15:40.048Z,9.63
2019-03-03T22:18:09.520Z,9.27
2019-03-03T22:20:38.919Z,11.47
2019-03-03T22:23:08.286Z,7.47
2019-03-03T22:25:37.809Z,5.27
2019-03-03T22:28:07.278Z,6.70
2019-03-03T22:30:36.685Z,8.90
2019-03-03T22:33:06.224Z,8.73
2019-03-03T22:35:35.637Z,8.63
2019-03-03T22:38:05.025Z,6.30
2019-03-03T22:40:34.410Z,12.30
2019-03-03T22:43:04.217Z,7.83
2019-03-03T22:45:33.586Z,9.93
2019-03-03T22:48:03.162Z,7.27
2019-03-03T22:50:34.113Z,6.60
2019-03-03T22:53:03.559Z,7.73
2019-03-03T22:55:36.382Z,8.43
2019-03-03T22:58:05.884Z,6.67
2019-03-03T23:00:54.930Z,7.37
2019-03-03T23:03:36.617Z,7.23
2019-03-03T23:06:29.666Z,5.50
2019-03-03T23:09:05.108Z,6.97
2019-03-03T23:11:57.223Z,7.70
2019-03-03T23:14:35.367Z,7.73
2019-03-03T23:17:13.554Z,7.23
2019-03-03T23:19:57.688Z,7.47
2019-03-03T23:22:32.582Z,8.93
2019-03-03T23:25:14.043Z,7.40
2019-03-03T23:27:43.459Z,6.60
2019-03-03T23:30:13.033Z,7.67
2019-03-03T23:32:42.406Z,5.63
2019-03-03T23:35:11.946Z,6.37
2019-03-03T23:37:41.388Z,5.40
2019-03-03T23:40:10.763Z,8.33
2019-03-03T23:42:40.142Z,6.97
2019-03-03T23:45:10.873Z,6.67
2019-03-03T23:47:40.357Z,6.87
2019-03-03T23:50:10.135Z,6.33
2019-03-03T23:52:39.520Z,5.97
2019-03-03T23:55:09.114Z,7.27
2019-03-03T23:57:38.548Z,5.93
